Strona główna
METAR-TAF:

METAR-TAF

Lotnisko :

Port lotniczy Sandakan

Sandakan, Malezja

Szerokość geograficzna: 05-54N, Długość geograficzna: 118-04E, wysokość: 12 m

Aktualna obserwacja pogody

Raport powstał 55 minut temu, godzina 00:00 UTC
Wiatr 2 kt z kierunków zmiennych
Temperatura 27°C
Wilgotność 84%
Ciśnienie 1009 hPa
Widzialność 10 km lub więcej
Mało chmury na wysokości 1600 ft

METAR: WBKS 270000Z VRB02KT 9999 FEW016 27/24 Q1009

czas: 08:55 (00:55 UTC)

Prognoza

Raport powstał 1 godzina i 55 minut temu, godzina 23:00 UTC
Prognoza ważna od 27 godzina 00 UTC do 28 godzina 00 UTC
Wiatr 5 kt od zachód
Widzialność 10 km lub więcej
Mało chmury na wysokości 1600 ft

TAF: WBKS 262300Z 2700/2800 28005KT 9999 FEW016

Obserwacja i prognoza pogody dla ponad 4000 lotnisk (raport METAR i TAF).

Dostępne stacje oznaczono żółtymi i czerwonymi punktami na mapie.

Najedź kursorem aby zobaczyć nazwę stacji.

Kliknij aby zobaczyć obserwacje i prognozy pogody.

Aby zmienić mapę: kliknij na zielony przycisk z czarnym krzyżykiem, aby powiększyć; na zielony przycisk z myślnikiem, aby pomniejszyć; na zielone strzałki, aby przejść do map sąsiednich.


METAR-TAF: